sensor_id;sensor_type;location;lat;lon;timestamp;temperature;humidity
65884;HTU21D;52663;51.038;5.858;2022-08-01T00:01:55;22.96;71.75
65884;HTU21D;52663;51.038;5.858;2022-08-01T00:04:21;22.99;71.70
65884;HTU21D;52663;51.038;5.858;2022-08-01T00:06:49;23.01;71.58
65884;HTU21D;52663;51.038;5.858;2022-08-01T00:09:18;23.03;71.66
65884;HTU21D;52663;51.038;5.858;2022-08-01T00:11:43;23.02;71.64
65884;HTU21D;52663;51.038;5.858;2022-08-01T00:14:09;23.03;71.61
65884;HTU21D;52663;51.038;5.858;2022-08-01T00:16:35;23.03;71.62
65884;HTU21D;52663;51.038;5.858;2022-08-01T00:19:02;23.05;71.61
65884;HTU21D;52663;51.038;5.858;2022-08-01T00:21:28;23.01;71.65
65884;HTU21D;52663;51.038;5.858;2022-08-01T00:23:53;22.94;71.89
65884;HTU21D;52663;51.038;5.858;2022-08-01T00:26:19;22.91;72.04
65884;HTU21D;52663;51.038;5.858;2022-08-01T00:28:45;22.88;72.18
65884;HTU21D;52663;51.038;5.858;2022-08-01T00:31:11;22.86;72.26
65884;HTU21D;52663;51.038;5.858;2022-08-01T00:33:37;22.87;72.29
65884;HTU21D;52663;51.038;5.858;2022-08-01T00:36:03;22.88;72.40
65884;HTU21D;52663;51.038;5.858;2022-08-01T00:38:29;22.92;72.23
65884;HTU21D;52663;51.038;5.858;2022-08-01T00:40:54;22.87;72.32
65884;HTU21D;52663;51.038;5.858;2022-08-01T00:43:20;22.83;72.65
65884;HTU21D;52663;51.038;5.858;2022-08-01T00:45:46;22.91;72.54
65884;HTU21D;52663;51.038;5.858;2022-08-01T00:48:12;22.92;72.37
65884;HTU21D;52663;51.038;5.858;2022-08-01T00:50:38;22.90;72.44
65884;HTU21D;52663;51.038;5.858;2022-08-01T00:53:04;22.94;72.35
65884;HTU21D;52663;51.038;5.858;2022-08-01T00:55:31;22.97;72.13
65884;HTU21D;52663;51.038;5.858;2022-08-01T00:57:58;23.02;72.01
65884;HTU21D;52663;51.038;5.858;2022-08-01T01:00:24;23.07;71.80
65884;HTU21D;52663;51.038;5.858;2022-08-01T01:02:51;23.08;71.75
65884;HTU21D;52663;51.038;5.858;2022-08-01T01:05:17;23.08;71.72
65884;HTU21D;52663;51.038;5.858;2022-08-01T01:10:29;23.11;71.48
65884;HTU21D;52663;51.038;5.858;2022-08-01T01:16:08;23.01;71.64
65884;HTU21D;52663;51.038;5.858;2022-08-01T01:18:49;22.92;71.87
65884;HTU21D;52663;51.038;5.858;2022-08-01T01:29:30;22.93;71.96
65884;HTU21D;52663;51.038;5.858;2022-08-01T01:32:10;22.95;71.79
65884;HTU21D;52663;51.038;5.858;2022-08-01T01:34:42;22.93;71.81
65884;HTU21D;52663;51.038;5.858;2022-08-01T01:37:17;22.92;71.74
65884;HTU21D;52663;51.038;5.858;2022-08-01T01:39:45;22.83;71.90
65884;HTU21D;52663;51.038;5.858;2022-08-01T01:42:14;22.76;72.21
65884;HTU21D;52663;51.038;5.858;2022-08-01T01:44:44;22.75;72.25
65884;HTU21D;52663;51.038;5.858;2022-08-01T01:47:16;22.73;72.36
65884;HTU21D;52663;51.038;5.858;2022-08-01T01:49:44;22.77;72.12
65884;HTU21D;52663;51.038;5.858;2022-08-01T01:52:14;22.79;72.13
65884;HTU21D;52663;51.038;5.858;2022-08-01T01:54:46;22.79;72.00
65884;HTU21D;52663;51.038;5.858;2022-08-01T01:57:14;22.82;71.92
65884;HTU21D;52663;51.038;5.858;2022-08-01T01:59:44;22.82;71.96
65884;HTU21D;52663;51.038;5.858;2022-08-01T02:02:12;22.83;71.87
65884;HTU21D;52663;51.038;5.858;2022-08-01T02:04:42;22.84;71.72
65884;HTU21D;52663;51.038;5.858;2022-08-01T02:07:12;22.83;71.67
65884;HTU21D;52663;51.038;5.858;2022-08-01T02:09:41;22.80;71.79
65884;HTU21D;52663;51.038;5.858;2022-08-01T02:12:10;22.82;71.64
65884;HTU21D;52663;51.038;5.858;2022-08-01T02:14:39;22.81;71.68
65884;HTU21D;52663;51.038;5.858;2022-08-01T02:17:06;22.80;71.63
65884;HTU21D;52663;51.038;5.858;2022-08-01T02:19:35;22.79;71.68
65884;HTU21D;52663;51.038;5.858;2022-08-01T02:22:06;22.80;71.69
65884;HTU21D;52663;51.038;5.858;2022-08-01T02:27:34;22.78;71.67
65884;HTU21D;52663;51.038;5.858;2022-08-01T02:30:12;22.80;71.69
65884;HTU21D;52663;51.038;5.858;2022-08-01T02:33:02;22.83;71.61
65884;HTU21D;52663;51.038;5.858;2022-08-01T02:35:33;22.80;71.64
65884;HTU21D;52663;51.038;5.858;2022-08-01T02:38:06;22.82;71.64
65884;HTU21D;52663;51.038;5.858;2022-08-01T02:40:38;22.79;71.61
65884;HTU21D;52663;51.038;5.858;2022-08-01T02:43:09;22.73;71.65
65884;HTU21D;52663;51.038;5.858;2022-08-01T02:45:42;22.70;71.87
65884;HTU21D;52663;51.038;5.858;2022-08-01T02:48:15;22.73;71.90
65884;HTU21D;52663;51.038;5.858;2022-08-01T02:50:45;22.73;71.82
65884;HTU21D;52663;51.038;5.858;2022-08-01T02:53:13;22.77;71.67
65884;HTU21D;52663;51.038;5.858;2022-08-01T02:55:41;22.73;71.77
65884;HTU21D;52663;51.038;5.858;2022-08-01T02:58:10;22.72;71.85
65884;HTU21D;52663;51.038;5.858;2022-08-01T03:00:39;22.73;71.74
65884;HTU21D;52663;51.038;5.858;2022-08-01T03:03:08;22.70;71.80
65884;HTU21D;52663;51.038;5.858;2022-08-01T03:05:35;22.72;71.77
65884;HTU21D;52663;51.038;5.858;2022-08-01T03:08:03;22.78;71.61
65884;HTU21D;52663;51.038;5.858;2022-08-01T03:10:33;22.80;71.24
65884;HTU21D;52663;51.038;5.858;2022-08-01T03:13:03;22.78;71.37
65884;HTU21D;52663;51.038;5.858;2022-08-01T03:15:33;22.79;71.28
65884;HTU21D;52663;51.038;5.858;2022-08-01T03:18:03;22.81;71.16
65884;HTU21D;52663;51.038;5.858;2022-08-01T03:20:32;22.82;71.09
65884;HTU21D;52663;51.038;5.858;2022-08-01T03:23:03;22.84;71.06
65884;HTU21D;52663;51.038;5.858;2022-08-01T03:25:31;22.79;71.00
65884;HTU21D;52663;51.038;5.858;2022-08-01T03:28:02;22.81;70.97
65884;HTU21D;52663;51.038;5.858;2022-08-01T03:30:31;22.80;71.01
65884;HTU21D;52663;51.038;5.858;2022-08-01T03:32:58;22.82;70.89
65884;HTU21D;52663;51.038;5.858;2022-08-01T03:35:33;22.82;70.88
65884;HTU21D;52663;51.038;5.858;2022-08-01T03:38:02;22.78;70.81
65884;HTU21D;52663;51.038;5.858;2022-08-01T03:43:08;22.69;71.20
65884;HTU21D;52663;51.038;5.858;2022-08-01T03:45:40;22.69;71.16
65884;HTU21D;52663;51.038;5.858;2022-08-01T03:48:12;22.70;71.19
65884;HTU21D;52663;51.038;5.858;2022-08-01T03:50:42;22.71;71.14
65884;HTU21D;52663;51.038;5.858;2022-08-01T03:53:10;22.72;71.13
65884;HTU21D;52663;51.038;5.858;2022-08-01T03:55:39;22.76;71.03
65884;HTU21D;52663;51.038;5.858;2022-08-01T03:58:09;22.77;70.93
65884;HTU21D;52663;51.038;5.858;2022-08-01T04:00:36;22.79;70.88
65884;HTU21D;52663;51.038;5.858;2022-08-01T04:03:10;22.77;70.90
65884;HTU21D;52663;51.038;5.858;2022-08-01T04:05:36;22.79;70.97
65884;HTU21D;52663;51.038;5.858;2022-08-01T04:08:02;22.79;70.87
65884;HTU21D;52663;51.038;5.858;2022-08-01T04:10:28;22.73;71.04
65884;HTU21D;52663;51.038;5.858;2022-08-01T04:12:55;22.75;71.10
65884;HTU21D;52663;51.038;5.858;2022-08-01T04:15:21;22.66;71.16
65884;HTU21D;52663;51.038;5.858;2022-08-01T04:17:48;22.62;71.44
65884;HTU21D;52663;51.038;5.858;2022-08-01T04:20:14;22.61;71.38
65884;HTU21D;52663;51.038;5.858;2022-08-01T04:22:41;22.61;71.54
65884;HTU21D;52663;51.038;5.858;2022-08-01T04:25:14;22.64;71.55
65884;HTU21D;52663;51.038;5.858;2022-08-01T04:27:44;22.58;71.75
65884;HTU21D;52663;51.038;5.858;2022-08-01T04:30:12;22.52;72.48
65884;HTU21D;52663;51.038;5.858;2022-08-01T04:32:40;22.44;73.18
65884;HTU21D;52663;51.038;5.858;2022-08-01T04:35:12;22.40;73.64
65884;HTU21D;52663;51.038;5.858;2022-08-01T04:37:44;22.33;73.99
65884;HTU21D;52663;51.038;5.858;2022-08-01T04:40:12;22.28;74.43
65884;HTU21D;52663;51.038;5.858;2022-08-01T04:42:38;22.27;74.73
65884;HTU21D;52663;51.038;5.858;2022-08-01T04:45:05;22.27;74.84
65884;HTU21D;52663;51.038;5.858;2022-08-01T04:47:36;22.26;74.94
65884;HTU21D;52663;51.038;5.858;2022-08-01T04:50:06;22.29;74.92
65884;HTU21D;52663;51.038;5.858;2022-08-01T04:52:37;22.31;75.21
65884;HTU21D;52663;51.038;5.858;2022-08-01T04:55:04;22.29;75.18
65884;HTU21D;52663;51.038;5.858;2022-08-01T04:57:38;22.22;75.37
65884;HTU21D;52663;51.038;5.858;2022-08-01T05:00:05;22.21;75.60
65884;HTU21D;52663;51.038;5.858;2022-08-01T05:02:32;22.25;75.74
65884;HTU21D;52663;51.038;5.858;2022-08-01T05:04:58;22.28;75.60
65884;HTU21D;52663;51.038;5.858;2022-08-01T05:07:24;22.28;75.54
65884;HTU21D;52663;51.038;5.858;2022-08-01T05:09:50;22.28;75.57
65884;HTU21D;52663;51.038;5.858;2022-08-01T05:12:16;22.29;75.66
65884;HTU21D;52663;51.038;5.858;2022-08-01T05:14:42;22.33;75.58
65884;HTU21D;52663;51.038;5.858;2022-08-01T05:17:08;22.35;75.52
65884;HTU21D;52663;51.038;5.858;2022-08-01T05:19:36;22.43;75.24
65884;HTU21D;52663;51.038;5.858;2022-08-01T05:22:04;22.48;75.00
65884;HTU21D;52663;51.038;5.858;2022-08-01T05:24:32;22.53;74.89
65884;HTU21D;52663;51.038;5.858;2022-08-01T05:26:58;22.52;75.09
65884;HTU21D;52663;51.038;5.858;2022-08-01T05:29:25;22.54;74.95
65884;HTU21D;52663;51.038;5.858;2022-08-01T05:31:52;22.58;74.92
65884;HTU21D;52663;51.038;5.858;2022-08-01T05:34:19;22.56;74.85
65884;HTU21D;52663;51.038;5.858;2022-08-01T05:36:45;22.55;74.92
65884;HTU21D;52663;51.038;5.858;2022-08-01T05:39:14;22.50;75.03
65884;HTU21D;52663;51.038;5.858;2022-08-01T05:41:41;22.49;75.15
65884;HTU21D;52663;51.038;5.858;2022-08-01T05:44:07;22.50;75.41
65884;HTU21D;52663;51.038;5.858;2022-08-01T05:46:33;22.55;75.29
65884;HTU21D;52663;51.038;5.858;2022-08-01T05:49:00;22.56;75.35
65884;HTU21D;52663;51.038;5.858;2022-08-01T05:51:26;22.60;75.35
65884;HTU21D;52663;51.038;5.858;2022-08-01T05:53:53;22.58;75.31
65884;HTU21D;52663;51.038;5.858;2022-08-01T05:56:19;22.62;75.08
65884;HTU21D;52663;51.038;5.858;2022-08-01T05:58:46;22.64;74.80
65884;HTU21D;52663;51.038;5.858;2022-08-01T06:01:12;22.62;74.96
65884;HTU21D;52663;51.038;5.858;2022-08-01T06:03:38;22.61;74.94
65884;HTU21D;52663;51.038;5.858;2022-08-01T06:06:04;22.63;75.04
65884;HTU21D;52663;51.038;5.858;2022-08-01T06:08:30;22.65;74.84
65884;HTU21D;52663;51.038;5.858;2022-08-01T06:10:57;22.65;74.76
65884;HTU21D;52663;51.038;5.858;2022-08-01T06:13:24;22.66;74.72
65884;HTU21D;52663;51.038;5.858;2022-08-01T06:15:50;22.67;74.88
65884;HTU21D;52663;51.038;5.858;2022-08-01T06:18:17;22.66;74.73
65884;HTU21D;52663;51.038;5.858;2022-08-01T06:20:43;22.70;74.79
65884;HTU21D;52663;51.038;5.858;2022-08-01T06:23:09;22.77;74.89
65884;HTU21D;52663;51.038;5.858;2022-08-01T06:25:35;22.85;74.79
65884;HTU21D;52663;51.038;5.858;2022-08-01T06:28:01;22.93;74.50
65884;HTU21D;52663;51.038;5.858;2022-08-01T06:30:27;22.99;74.25
65884;HTU21D;52663;51.038;5.858;2022-08-01T06:32:53;23.06;74.09
65884;HTU21D;52663;51.038;5.858;2022-08-01T06:35:21;23.13;73.80
65884;HTU21D;52663;51.038;5.858;2022-08-01T06:37:47;23.16;73.86
65884;HTU21D;52663;51.038;5.858;2022-08-01T06:40:14;23.16;73.54
65884;HTU21D;52663;51.038;5.858;2022-08-01T06:42:40;23.07;73.71
65884;HTU21D;52663;51.038;5.858;2022-08-01T06:45:08;23.00;73.78
65884;HTU21D;52663;51.038;5.858;2022-08-01T06:47:38;23.03;73.73
65884;HTU21D;52663;51.038;5.858;2022-08-01T06:50:07;23.02;73.57
65884;HTU21D;52663;51.038;5.858;2022-08-01T06:52:33;23.01;73.77
65884;HTU21D;52663;51.038;5.858;2022-08-01T06:54:59;23.01;73.77
65884;HTU21D;52663;51.038;5.858;2022-08-01T06:57:25;22.96;74.01
65884;HTU21D;52663;51.038;5.858;2022-08-01T06:59:51;22.96;74.11
65884;HTU21D;52663;51.038;5.858;2022-08-01T07:02:18;22.91;74.09
65884;HTU21D;52663;51.038;5.858;2022-08-01T07:04:44;22.87;74.14
65884;HTU21D;52663;51.038;5.858;2022-08-01T07:07:10;22.86;74.12
65884;HTU21D;52663;51.038;5.858;2022-08-01T07:09:38;22.87;74.25
65884;HTU21D;52663;51.038;5.858;2022-08-01T07:12:29;22.87;73.93
65884;HTU21D;52663;51.038;5.858;2022-08-01T07:14:55;22.88;74.02
65884;HTU21D;52663;51.038;5.858;2022-08-01T07:17:21;22.96;74.17
65884;HTU21D;52663;51.038;5.858;2022-08-01T07:19:49;23.10;73.76
65884;HTU21D;52663;51.038;5.858;2022-08-01T07:22:15;23.18;73.14
65884;HTU21D;52663;51.038;5.858;2022-08-01T07:24:44;23.21;72.40
65884;HTU21D;52663;51.038;5.858;2022-08-01T07:27:10;23.22;71.96
65884;HTU21D;52663;51.038;5.858;2022-08-01T07:29:36;23.29;71.90
65884;HTU21D;52663;51.038;5.858;2022-08-01T07:32:02;23.43;71.40
65884;HTU21D;52663;51.038;5.858;2022-08-01T07:34:28;23.53;70.94
65884;HTU21D;52663;51.038;5.858;2022-08-01T07:36:54;23.62;70.56
65884;HTU21D;52663;51.038;5.858;2022-08-01T07:39:20;23.65;69.94
65884;HTU21D;52663;51.038;5.858;2022-08-01T07:41:48;23.61;69.81
65884;HTU21D;52663;51.038;5.858;2022-08-01T07:44:17;23.58;69.79
65884;HTU21D;52663;51.038;5.858;2022-08-01T07:46:43;23.64;69.61
65884;HTU21D;52663;51.038;5.858;2022-08-01T07:49:09;23.62;69.55
65884;HTU21D;52663;51.038;5.858;2022-08-01T07:51:41;23.61;69.64
65884;HTU21D;52663;51.038;5.858;2022-08-01T07:54:11;23.60;69.72
65884;HTU21D;52663;51.038;5.858;2022-08-01T07:56:37;23.56;69.83
65884;HTU21D;52663;51.038;5.858;2022-08-01T07:59:03;23.55;70.17
65884;HTU21D;52663;51.038;5.858;2022-08-01T08:01:29;23.53;69.85
65884;HTU21D;52663;51.038;5.858;2022-08-01T08:03:55;23.44;69.97
65884;HTU21D;52663;51.038;5.858;2022-08-01T08:06:21;23.50;70.19
65884;HTU21D;52663;51.038;5.858;2022-08-01T08:08:48;23.56;69.94
65884;HTU21D;52663;51.038;5.858;2022-08-01T08:11:13;23.62;69.80
65884;HTU21D;52663;51.038;5.858;2022-08-01T08:13:39;23.67;69.78
65884;HTU21D;52663;51.038;5.858;2022-08-01T08:16:05;23.77;69.31
65884;HTU21D;52663;51.038;5.858;2022-08-01T08:18:31;23.87;68.33
65884;HTU21D;52663;51.038;5.858;2022-08-01T08:20:57;24.01;67.62
65884;HTU21D;52663;51.038;5.858;2022-08-01T08:23:23;24.15;66.87
65884;HTU21D;52663;51.038;5.858;2022-08-01T08:26:07;24.33;66.20
65884;HTU21D;52663;51.038;5.858;2022-08-01T08:28:33;24.44;66.31
65884;HTU21D;52663;51.038;5.858;2022-08-01T08:30:59;24.56;65.86
65884;HTU21D;52663;51.038;5.858;2022-08-01T08:33:25;24.63;65.46
65884;HTU21D;52663;51.038;5.858;2022-08-01T08:35:51;24.66;65.38
65884;HTU21D;52663;51.038;5.858;2022-08-01T08:38:19;24.64;65.21
65884;HTU21D;52663;51.038;5.858;2022-08-01T08:40:46;24.58;65.05
65884;HTU21D;52663;51.038;5.858;2022-08-01T08:43:18;24.46;65.37
65884;HTU21D;52663;51.038;5.858;2022-08-01T08:45:45;24.40;65.39
65884;HTU21D;52663;51.038;5.858;2022-08-01T08:48:12;24.34;65.75
65884;HTU21D;52663;51.038;5.858;2022-08-01T08:50:41;24.41;65.62
65884;HTU21D;52663;51.038;5.858;2022-08-01T08:53:15;24.48;65.48
65884;HTU21D;52663;51.038;5.858;2022-08-01T08:55:47;24.68;64.66
65884;HTU21D;52663;51.038;5.858;2022-08-01T08:58:17;24.92;63.79
65884;HTU21D;52663;51.038;5.858;2022-08-01T09:00:58;25.37;62.96
65884;HTU21D;52663;51.038;5.858;2022-08-01T09:03:27;25.89;61.43
65884;HTU21D;52663;51.038;5.858;2022-08-01T09:05:56;26.27;60.12
65884;HTU21D;52663;51.038;5.858;2022-08-01T09:08:22;26.49;59.02
65884;HTU21D;52663;51.038;5.858;2022-08-01T09:10:47;26.69;58.03
65884;HTU21D;52663;51.038;5.858;2022-08-01T09:13:14;26.80;57.42
65884;HTU21D;52663;51.038;5.858;2022-08-01T09:15:49;26.91;56.55
65884;HTU21D;52663;51.038;5.858;2022-08-01T09:18:28;27.04;56.02
65884;HTU21D;52663;51.038;5.858;2022-08-01T09:21:09;26.97;56.19
65884;HTU21D;52663;51.038;5.858;2022-08-01T09:23:43;26.91;56.74
65884;HTU21D;52663;51.038;5.858;2022-08-01T09:26:32;26.82;56.85
65884;HTU21D;52663;51.038;5.858;2022-08-01T09:28:58;26.87;56.27
65884;HTU21D;52663;51.038;5.858;2022-08-01T09:31:27;27.10;55.58
65884;HTU21D;52663;51.038;5.858;2022-08-01T09:33:54;27.31;54.66
65884;HTU21D;52663;51.038;5.858;2022-08-01T09:36:23;27.42;53.76
65884;HTU21D;52663;51.038;5.858;2022-08-01T09:38:51;27.52;53.49
65884;HTU21D;52663;51.038;5.858;2022-08-01T09:41:29;27.76;52.56
65884;HTU21D;52663;51.038;5.858;2022-08-01T09:43:55;28.04;51.66
65884;HTU21D;52663;51.038;5.858;2022-08-01T09:46:24;28.27;51.23
65884;HTU21D;52663;51.038;5.858;2022-08-01T09:49:03;28.32;50.43
65884;HTU21D;52663;51.038;5.858;2022-08-01T09:51:30;28.20;50.60
65884;HTU21D;52663;51.038;5.858;2022-08-01T09:54:27;28.17;50.62
65884;HTU21D;52663;51.038;5.858;2022-08-01T09:56:47;28.19;50.07
65884;HTU21D;52663;51.038;5.858;2022-08-01T09:59:15;28.30;50.18
65884;HTU21D;52663;51.038;5.858;2022-08-01T10:01:48;28.53;49.40
65884;HTU21D;52663;51.038;5.858;2022-08-01T10:04:17;28.56;49.22
65884;HTU21D;52663;51.038;5.858;2022-08-01T10:06:47;28.62;48.54
65884;HTU21D;52663;51.038;5.858;2022-08-01T10:09:33;28.54;48.27
65884;HTU21D;52663;51.038;5.858;2022-08-01T10:12:34;28.64;48.05
65884;HTU21D;52663;51.038;5.858;2022-08-01T10:15:08;28.79;47.26
65884;HTU21D;52663;51.038;5.858;2022-08-01T10:17:35;28.98;46.64
65884;HTU21D;52663;51.038;5.858;2022-08-01T10:20:05;29.12;46.60
65884;HTU21D;52663;51.038;5.858;2022-08-01T10:22:34;29.34;46.06
65884;HTU21D;52663;51.038;5.858;2022-08-01T10:25:04;29.41;45.01
65884;HTU21D;52663;51.038;5.858;2022-08-01T10:27:32;29.37;45.36
65884;HTU21D;52663;51.038;5.858;2022-08-01T10:30:05;29.58;45.06
65884;HTU21D;52663;51.038;5.858;2022-08-01T10:32:35;29.85;43.90
65884;HTU21D;52663;51.038;5.858;2022-08-01T10:35:25;30.09;43.44
65884;HTU21D;52663;51.038;5.858;2022-08-01T10:37:50;30.24;42.77
65884;HTU21D;52663;51.038;5.858;2022-08-01T10:40:22;30.36;42.10
65884;HTU21D;52663;51.038;5.858;2022-08-01T10:42:48;30.45;41.52
65884;HTU21D;52663;51.038;5.858;2022-08-01T10:45:15;30.64;41.41
65884;HTU21D;52663;51.038;5.858;2022-08-01T10:50:37;30.91;39.57
65884;HTU21D;52663;51.038;5.858;2022-08-01T10:53:30;31.01;40.24
65884;HTU21D;52663;51.038;5.858;2022-08-01T10:55:59;31.50;39.43
65884;HTU21D;52663;51.038;5.858;2022-08-01T10:58:37;32.11;37.78
65884;HTU21D;52663;51.038;5.858;2022-08-01T11:01:25;31.87;37.70
65884;HTU21D;52663;51.038;5.858;2022-08-01T11:07:16;31.98;38.20
65884;HTU21D;52663;51.038;5.858;2022-08-01T11:09:46;32.11;37.75
65884;HTU21D;52663;51.038;5.858;2022-08-01T11:12:15;32.02;37.24
65884;HTU21D;52663;51.038;5.858;2022-08-01T11:15:20;31.97;37.19
65884;HTU21D;52663;51.038;5.858;2022-08-01T11:17:54;32.07;36.63
65884;HTU21D;52663;51.038;5.858;2022-08-01T11:20:26;31.72;37.01
65884;HTU21D;52663;51.038;5.858;2022-08-01T11:28:24;30.60;38.71
65884;HTU21D;52663;51.038;5.858;2022-08-01T11:38:47;31.80;36.02
65884;HTU21D;52663;51.038;5.858;2022-08-01T11:41:22;31.57;36.17
65884;HTU21D;52663;51.038;5.858;2022-08-01T11:44:15;31.94;36.17
65884;HTU21D;52663;51.038;5.858;2022-08-01T11:54:57;32.64;34.14
65884;HTU21D;52663;51.038;5.858;2022-08-01T11:57:30;33.47;33.05
65884;HTU21D;52663;51.038;5.858;2022-08-01T12:00:14;34.51;30.56
65884;HTU21D;52663;51.038;5.858;2022-08-01T12:03:04;34.55;29.97
65884;HTU21D;52663;51.038;5.858;2022-08-01T12:05:32;34.61;29.96
65884;HTU21D;52663;51.038;5.858;2022-08-01T12:08:00;34.64;29.39
65884;HTU21D;52663;51.038;5.858;2022-08-01T12:10:29;34.50;29.58
65884;HTU21D;52663;51.038;5.858;2022-08-01T12:13:16;34.42;28.42
65884;HTU21D;52663;51.038;5.858;2022-08-01T12:15:50;33.63;29.37
65884;HTU21D;52663;51.038;5.858;2022-08-01T12:18:19;32.88;31.07
65884;HTU21D;52663;51.038;5.858;2022-08-01T12:21:03;32.60;32.15
65884;HTU21D;52663;51.038;5.858;2022-08-01T12:23:33;32.76;32.12
65884;HTU21D;52663;51.038;5.858;2022-08-01T12:25:59;32.87;31.09
65884;HTU21D;52663;51.038;5.858;2022-08-01T12:28:38;32.40;32.22
65884;HTU21D;52663;51.038;5.858;2022-08-01T12:31:13;32.08;32.35
65884;HTU21D;52663;51.038;5.858;2022-08-01T12:33:42;31.78;32.86
65884;HTU21D;52663;51.038;5.858;2022-08-01T12:36:27;31.63;33.02
65884;HTU21D;52663;51.038;5.858;2022-08-01T12:38:56;31.51;33.14
65884;HTU21D;52663;51.038;5.858;2022-08-01T12:41:25;31.38;33.40
65884;HTU21D;52663;51.038;5.858;2022-08-01T12:43:51;31.44;33.53
65884;HTU21D;52663;51.038;5.858;2022-08-01T12:46:17;31.29;33.79
65884;HTU21D;52663;51.038;5.858;2022-08-01T12:48:44;31.22;33.96
65884;HTU21D;52663;51.038;5.858;2022-08-01T12:51:10;31.06;34.42
65884;HTU21D;52663;51.038;5.858;2022-08-01T12:53:37;30.82;34.86
65884;HTU21D;52663;51.038;5.858;2022-08-01T12:56:03;30.62;35.30
65884;HTU21D;52663;51.038;5.858;2022-08-01T12:58:33;30.50;35.95
65884;HTU21D;52663;51.038;5.858;2022-08-01T13:01:12;30.40;36.02
65884;HTU21D;52663;51.038;5.858;2022-08-01T13:03:39;30.26;36.26
65884;HTU21D;52663;51.038;5.858;2022-08-01T13:06:28;30.24;36.05
65884;HTU21D;52663;51.038;5.858;2022-08-01T13:08:55;30.33;36.08
65884;HTU21D;52663;51.038;5.858;2022-08-01T13:11:21;30.42;35.95
65884;HTU21D;52663;51.038;5.858;2022-08-01T13:13:51;30.45;35.63
65884;HTU21D;52663;51.038;5.858;2022-08-01T13:16:23;30.37;35.62
65884;HTU21D;52663;51.038;5.858;2022-08-01T13:18:55;30.21;36.32
65884;HTU21D;52663;51.038;5.858;2022-08-01T13:21:26;30.08;37.15
65884;HTU21D;52663;51.038;5.858;2022-08-01T13:24:10;30.06;38.78
65884;HTU21D;52663;51.038;5.858;2022-08-01T13:26:49;30.13;39.71
65884;HTU21D;52663;51.038;5.858;2022-08-01T13:29:19;30.22;39.39
65884;HTU21D;52663;51.038;5.858;2022-08-01T13:31:47;29.93;40.38
65884;HTU21D;52663;51.038;5.858;2022-08-01T13:34:13;29.83;42.19
65884;HTU21D;52663;51.038;5.858;2022-08-01T13:36:40;29.72;43.27
65884;HTU21D;52663;51.038;5.858;2022-08-01T13:39:06;29.53;43.90
65884;HTU21D;52663;51.038;5.858;2022-08-01T13:41:52;29.16;44.61
65884;HTU21D;52663;51.038;5.858;2022-08-01T13:44:20;28.84;45.40
65884;HTU21D;52663;51.038;5.858;2022-08-01T13:46:47;28.67;45.95
65884;HTU21D;52663;51.038;5.858;2022-08-01T13:49:15;28.39;46.37
65884;HTU21D;52663;51.038;5.858;2022-08-01T13:51:42;28.29;46.59
65884;HTU21D;52663;51.038;5.858;2022-08-01T13:54:08;28.15;47.18
65884;HTU21D;52663;51.038;5.858;2022-08-01T13:56:36;28.18;47.41
65884;HTU21D;52663;51.038;5.858;2022-08-01T13:59:08;28.33;47.40
65884;HTU21D;52663;51.038;5.858;2022-08-01T14:01:55;28.37;47.31
65884;HTU21D;52663;51.038;5.858;2022-08-01T14:04:21;28.62;46.47
65884;HTU21D;52663;51.038;5.858;2022-08-01T14:06:47;28.67;46.45
65884;HTU21D;52663;51.038;5.858;2022-08-01T14:09:15;28.88;46.39
65884;HTU21D;52663;51.038;5.858;2022-08-01T14:11:43;29.08;45.62
65884;HTU21D;52663;51.038;5.858;2022-08-01T14:14:09;29.16;45.06
65884;HTU21D;52663;51.038;5.858;2022-08-01T14:16:37;29.27;44.75
65884;HTU21D;52663;51.038;5.858;2022-08-01T14:19:03;29.29;44.14
65884;HTU21D;52663;51.038;5.858;2022-08-01T14:21:29;28.88;45.35
65884;HTU21D;52663;51.038;5.858;2022-08-01T14:23:55;28.77;45.90
65884;HTU21D;52663;51.038;5.858;2022-08-01T14:26:23;28.80;45.40
65884;HTU21D;52663;51.038;5.858;2022-08-01T14:28:49;28.70;45.69
65884;HTU21D;52663;51.038;5.858;2022-08-01T14:31:15;28.69;45.69
65884;HTU21D;52663;51.038;5.858;2022-08-01T14:33:41;28.55;46.35
65884;HTU21D;52663;51.038;5.858;2022-08-01T14:36:06;28.52;46.57
65884;HTU21D;52663;51.038;5.858;2022-08-01T14:38:32;28.35;46.57
65884;HTU21D;52663;51.038;5.858;2022-08-01T14:40:58;28.33;47.15
65884;HTU21D;52663;51.038;5.858;2022-08-01T14:43:25;28.29;46.63
65884;HTU21D;52663;51.038;5.858;2022-08-01T14:45:51;28.14;46.92
65884;HTU21D;52663;51.038;5.858;2022-08-01T14:48:19;28.15;47.15
65884;HTU21D;52663;51.038;5.858;2022-08-01T14:50:45;28.21;46.89
65884;HTU21D;52663;51.038;5.858;2022-08-01T14:53:12;28.24;46.62
65884;HTU21D;52663;51.038;5.858;2022-08-01T14:55:38;28.26;46.51
65884;HTU21D;52663;51.038;5.858;2022-08-01T14:58:04;28.29;46.10
65884;HTU21D;52663;51.038;5.858;2022-08-01T15:00:30;28.41;45.71
65884;HTU21D;52663;51.038;5.858;2022-08-01T15:02:55;28.58;45.20
65884;HTU21D;52663;51.038;5.858;2022-08-01T15:05:21;28.72;44.97
65884;HTU21D;52663;51.038;5.858;2022-08-01T15:07:47;28.89;44.03
65884;HTU21D;52663;51.038;5.858;2022-08-01T15:10:14;28.95;43.52
65884;HTU21D;52663;51.038;5.858;2022-08-01T15:12:41;28.91;42.78
65884;HTU21D;52663;51.038;5.858;2022-08-01T15:15:07;28.76;42.90
65884;HTU21D;52663;51.038;5.858;2022-08-01T15:17:33;28.78;42.74
65884;HTU21D;52663;51.038;5.858;2022-08-01T15:20:03;28.94;42.10
65884;HTU21D;52663;51.038;5.858;2022-08-01T15:22:53;29.13;41.84
65884;HTU21D;52663;51.038;5.858;2022-08-01T15:25:23;29.24;41.08
65884;HTU21D;52663;51.038;5.858;2022-08-01T15:27:49;29.18;41.04
65884;HTU21D;52663;51.038;5.858;2022-08-01T15:30:17;29.11;41.70
65884;HTU21D;52663;51.038;5.858;2022-08-01T15:32:43;29.15;41.19
65884;HTU21D;52663;51.038;5.858;2022-08-01T15:35:15;29.04;41.36
65884;HTU21D;52663;51.038;5.858;2022-08-01T15:37:46;28.99;41.29
65884;HTU21D;52663;51.038;5.858;2022-08-01T15:40:12;28.92;41.36
65884;HTU21D;52663;51.038;5.858;2022-08-01T15:42:38;28.71;41.16
65884;HTU21D;52663;51.038;5.858;2022-08-01T15:45:06;28.47;41.49
65884;HTU21D;52663;51.038;5.858;2022-08-01T15:47:34;28.42;41.41
65884;HTU21D;52663;51.038;5.858;2022-08-01T15:50:00;28.48;41.06
65884;HTU21D;52663;51.038;5.858;2022-08-01T15:52:28;28.69;40.68
65884;HTU21D;52663;51.038;5.858;2022-08-01T15:54:54;28.84;40.27
65884;HTU21D;52663;51.038;5.858;2022-08-01T15:57:19;28.85;40.22
65884;HTU21D;52663;51.038;5.858;2022-08-01T15:59:45;28.77;40.33
65884;HTU21D;52663;51.038;5.858;2022-08-01T16:02:11;28.82;40.75
65884;HTU21D;52663;51.038;5.858;2022-08-01T16:04:39;28.78;40.95
65884;HTU21D;52663;51.038;5.858;2022-08-01T16:07:05;28.70;41.54
65884;HTU21D;52663;51.038;5.858;2022-08-01T16:09:33;28.61;41.70
65884;HTU21D;52663;51.038;5.858;2022-08-01T16:11:59;28.39;42.10
65884;HTU21D;52663;51.038;5.858;2022-08-01T16:14:25;28.19;42.45
65884;HTU21D;52663;51.038;5.858;2022-08-01T16:16:51;28.10;42.92